createdAt,value
2022-10-31T00:01:20.528Z,11.30
2022-10-31T00:03:48.553Z,11.39
2022-10-31T00:06:16.367Z,11.38
2022-10-31T00:08:43.192Z,11.39
2022-10-31T00:11:11.026Z,11.43
2022-10-31T00:13:37.889Z,11.45
2022-10-31T00:16:05.000Z,11.48
2022-10-31T00:18:32.124Z,11.43
2022-10-31T00:21:02.558Z,11.41
2022-10-31T00:23:29.518Z,11.29
2022-10-31T00:26:04.346Z,11.32
2022-10-31T00:28:31.545Z,11.35
2022-10-31T00:31:07.720Z,11.32
2022-10-31T00:33:36.167Z,11.38
2022-10-31T00:36:04.317Z,11.28
2022-10-31T00:38:31.196Z,11.30
2022-10-31T00:40:58.227Z,11.12
2022-10-31T00:43:25.613Z,11.13
2022-10-31T00:45:52.464Z,11.23
2022-10-31T00:48:19.344Z,11.25
2022-10-31T00:50:46.448Z,11.27
2022-10-31T00:53:13.319Z,11.23
2022-10-31T00:55:40.187Z,11.30
2022-10-31T00:58:07.340Z,11.24
2022-10-31T01:00:34.247Z,11.20
2022-10-31T01:03:02.174Z,11.23
2022-10-31T01:05:29.462Z,11.25
2022-10-31T01:07:56.351Z,11.16
2022-10-31T01:10:23.315Z,11.20
2022-10-31T01:12:52.432Z,11.17
2022-10-31T01:15:23.480Z,11.16
2022-10-31T01:17:50.948Z,11.22
2022-10-31T01:20:19.964Z,11.28
2022-10-31T01:22:47.371Z,11.19
2022-10-31T01:25:14.502Z,11.11
2022-10-31T01:27:41.880Z,11.11
2022-10-31T01:30:09.209Z,11.07
2022-10-31T01:32:36.513Z,11.15
2022-10-31T01:35:03.720Z,11.18
2022-10-31T01:37:31.792Z,11.23
2022-10-31T01:39:58.900Z,11.25
2022-10-31T01:42:25.792Z,11.27
2022-10-31T01:44:59.354Z,11.22
2022-10-31T01:47:35.271Z,11.25
2022-10-31T01:50:05.139Z,11.23
2022-10-31T01:52:46.048Z,11.30
2022-10-31T01:55:20.119Z,11.30
2022-10-31T01:57:49.592Z,11.25
2022-10-31T02:00:18.205Z,11.28
2022-10-31T02:02:46.715Z,11.30
2022-10-31T02:05:18.181Z,11.29
2022-10-31T02:07:53.318Z,11.31
2022-10-31T02:10:22.607Z,11.28
2022-10-31T02:12:52.364Z,11.31
2022-10-31T02:15:19.608Z,11.30
2022-10-31T02:17:47.392Z,11.31
2022-10-31T02:20:22.140Z,11.32
2022-10-31T02:23:03.304Z,11.18
2022-10-31T02:25:56.836Z,11.24
2022-10-31T02:28:36.061Z,11.19
2022-10-31T02:31:17.323Z,11.17
2022-10-31T02:34:07.985Z,11.24
2022-10-31T02:36:50.516Z,11.19
2022-10-31T02:39:33.463Z,11.15
2022-10-31T02:42:03.030Z,11.16
2022-10-31T02:44:44.156Z,11.18
2022-10-31T02:47:14.971Z,11.20
2022-10-31T02:49:57.519Z,11.17
2022-10-31T02:52:35.191Z,11.20
2022-10-31T02:55:14.430Z,11.24
2022-10-31T02:57:42.656Z,11.20
2022-10-31T03:00:10.443Z,11.15
2022-10-31T03:02:43.098Z,11.21
2022-10-31T03:05:42.610Z,11.18
2022-10-31T03:08:19.867Z,10.96
2022-10-31T03:11:04.253Z,10.99
2022-10-31T03:13:49.679Z,10.99
2022-10-31T03:16:26.769Z,11.03
2022-10-31T03:18:58.183Z,11.01
2022-10-31T03:21:30.563Z,10.95
2022-10-31T03:24:00.262Z,10.91
2022-10-31T03:26:27.481Z,10.89
2022-10-31T03:28:58.107Z,10.93
2022-10-31T03:31:28.901Z,10.97
2022-10-31T03:33:59.952Z,10.96
2022-10-31T03:36:31.627Z,10.99
2022-10-31T03:38:59.715Z,11.04
2022-10-31T03:41:30.176Z,11.05
2022-10-31T03:44:02.005Z,10.99
2022-10-31T03:46:29.641Z,11.02
2022-10-31T03:48:57.648Z,11.10
2022-10-31T03:51:33.608Z,11.20
2022-10-31T03:54:28.078Z,11.09
2022-10-31T03:57:03.598Z,10.92
2022-10-31T03:59:34.325Z,10.92
2022-10-31T04:02:14.015Z,10.88
2022-10-31T04:04:45.088Z,10.77
2022-10-31T04:07:13.256Z,10.78
2022-10-31T04:09:44.614Z,10.69
2022-10-31T04:12:15.975Z,10.70
2022-10-31T04:14:48.278Z,10.69
2022-10-31T04:17:17.579Z,10.73
2022-10-31T04:19:45.317Z,10.67
2022-10-31T04:22:13.010Z,10.72
2022-10-31T04:24:41.452Z,10.79
2022-10-31T04:27:08.765Z,10.80
2022-10-31T04:29:35.700Z,10.86
2022-10-31T04:32:02.876Z,10.88
2022-10-31T04:34:29.742Z,10.87
2022-10-31T04:36:56.663Z,10.94
2022-10-31T04:39:26.564Z,10.88
2022-10-31T04:41:56.776Z,10.81
2022-10-31T04:44:24.893Z,10.83
2022-10-31T04:46:52.709Z,10.92
2022-10-31T04:49:19.602Z,10.85
2022-10-31T04:51:46.965Z,10.87
2022-10-31T04:54:14.100Z,10.89
2022-10-31T04:56:42.904Z,10.88
2022-10-31T04:59:10.465Z,10.89
2022-10-31T05:01:39.021Z,10.95
2022-10-31T05:04:06.084Z,10.97
2022-10-31T05:06:33.238Z,11.01
2022-10-31T05:09:00.115Z,10.96
2022-10-31T05:11:27.024Z,10.99
2022-10-31T05:13:54.747Z,10.97
2022-10-31T05:16:24.755Z,10.96
2022-10-31T05:18:55.279Z,10.93
2022-10-31T05:21:24.290Z,10.86
2022-10-31T05:23:51.296Z,10.82
2022-10-31T05:26:18.396Z,10.81
2022-10-31T05:28:45.505Z,10.79
2022-10-31T05:31:12.358Z,10.80
2022-10-31T05:33:39.252Z,10.62
2022-10-31T05:36:08.477Z,10.71
2022-10-31T05:38:35.912Z,10.79
2022-10-31T05:41:05.671Z,10.79
2022-10-31T05:43:34.807Z,10.83
2022-10-31T05:46:02.107Z,10.83
2022-10-31T05:48:32.607Z,10.65
2022-10-31T05:51:03.091Z,10.77
2022-10-31T05:53:30.594Z,10.71
2022-10-31T05:55:57.556Z,10.80
2022-10-31T05:58:25.728Z,10.82
2022-10-31T06:00:54.789Z,10.89
2022-10-31T06:03:21.917Z,10.98
2022-10-31T06:05:52.519Z,10.94
2022-10-31T06:08:22.957Z,10.82
2022-10-31T06:10:50.044Z,10.94
2022-10-31T06:13:17.821Z,10.97
2022-10-31T06:15:45.101Z,10.97
2022-10-31T06:18:12.341Z,10.99
2022-10-31T06:20:39.832Z,11.01
2022-10-31T06:23:07.410Z,11.07
2022-10-31T06:25:34.825Z,11.10
2022-10-31T06:28:01.966Z,11.08
2022-10-31T06:30:29.923Z,11.09
2022-10-31T06:33:05.408Z,11.17
2022-10-31T06:35:33.948Z,11.16
2022-10-31T06:38:01.503Z,11.19
2022-10-31T06:40:28.963Z,11.25
2022-10-31T06:43:01.732Z,11.08
2022-10-31T06:45:30.196Z,11.16
2022-10-31T06:48:17.691Z,11.17
2022-10-31T06:50:50.116Z,11.15
2022-10-31T06:53:17.346Z,11.16
2022-10-31T06:55:44.337Z,11.09
2022-10-31T06:58:12.113Z,11.11
2022-10-31T07:00:39.690Z,11.14
2022-10-31T07:03:10.549Z,11.08
2022-10-31T07:05:37.745Z,11.20
2022-10-31T07:08:07.572Z,11.24
2022-10-31T07:10:39.237Z,11.22
2022-10-31T07:13:15.270Z,11.25
2022-10-31T07:15:43.549Z,11.36
2022-10-31T07:18:12.275Z,11.28
2022-10-31T07:20:39.643Z,11.31
2022-10-31T07:23:06.815Z,11.33
2022-10-31T07:25:34.314Z,11.20
2022-10-31T07:28:02.289Z,11.11
2022-10-31T07:30:29.587Z,11.04
2022-10-31T07:32:57.662Z,11.10
2022-10-31T07:35:27.251Z,11.21
2022-10-31T07:37:55.824Z,11.28
2022-10-31T07:40:24.714Z,11.29
2022-10-31T07:42:53.733Z,11.30
2022-10-31T07:45:28.657Z,11.42
2022-10-31T07:47:58.792Z,11.37
2022-10-31T07:50:40.229Z,11.25
2022-10-31T07:53:15.728Z,11.25
2022-10-31T07:55:44.280Z,11.29
2022-10-31T07:58:15.078Z,11.24
2022-10-31T08:00:45.788Z,11.42
2022-10-31T08:03:15.476Z,11.52
2022-10-31T08:05:48.525Z,11.55
2022-10-31T08:08:19.201Z,11.58
2022-10-31T08:10:48.493Z,11.56
2022-10-31T08:13:15.601Z,11.60
2022-10-31T08:15:43.408Z,11.63
2022-10-31T08:18:14.005Z,11.77
2022-10-31T08:20:44.262Z,11.91
2022-10-31T08:23:12.410Z,11.89
2022-10-31T08:25:39.468Z,11.95
2022-10-31T08:28:07.688Z,11.92
2022-10-31T08:30:36.955Z,12.03
2022-10-31T08:33:11.006Z,12.23
2022-10-31T08:35:42.993Z,12.33
2022-10-31T08:38:15.105Z,12.26
2022-10-31T08:40:42.900Z,12.28
2022-10-31T08:43:14.400Z,12.38
2022-10-31T08:45:41.747Z,12.34
2022-10-31T08:48:13.475Z,12.17
2022-10-31T08:50:41.226Z,11.97
2022-10-31T08:53:16.716Z,12.09
2022-10-31T08:55:46.891Z,12.21
2022-10-31T08:58:20.094Z,12.17
2022-10-31T09:00:49.403Z,12.12
2022-10-31T09:03:21.376Z,12.14
2022-10-31T09:05:48.806Z,12.22
2022-10-31T09:08:17.095Z,12.25
2022-10-31T09:10:45.149Z,12.23
2022-10-31T09:13:17.825Z,12.33
2022-10-31T09:15:49.083Z,12.44
2022-10-31T09:18:19.188Z,12.09
2022-10-31T09:20:48.339Z,12.10
2022-10-31T09:23:20.706Z,11.93
2022-10-31T09:25:50.940Z,11.98
2022-10-31T09:28:24.314Z,11.99
2022-10-31T09:30:53.952Z,12.16
2022-10-31T09:33:22.033Z,12.07
2022-10-31T09:35:51.825Z,12.13
2022-10-31T09:38:20.760Z,12.19
2022-10-31T09:41:15.976Z,12.20
2022-10-31T09:44:20.813Z,12.19
2022-10-31T09:46:59.380Z,12.01
2022-10-31T09:49:26.915Z,12.17
2022-10-31T09:51:59.101Z,12.29
2022-10-31T09:54:48.266Z,12.19
2022-10-31T09:57:19.838Z,12.28
2022-10-31T09:59:49.113Z,12.17
2022-10-31T10:02:22.601Z,12.40
2022-10-31T10:05:00.413Z,12.07
2022-10-31T10:08:06.650Z,12.26
2022-10-31T10:10:50.638Z,12.44
2022-10-31T10:13:41.421Z,12.59
2022-10-31T10:16:34.484Z,12.59
2022-10-31T10:19:18.193Z,12.45
2022-10-31T10:21:59.177Z,12.47
2022-10-31T10:24:34.932Z,12.22
2022-10-31T10:27:15.820Z,12.30
2022-10-31T10:29:53.727Z,12.26
2022-10-31T10:32:27.972Z,12.32
2022-10-31T10:35:03.695Z,12.42
2022-10-31T10:37:42.328Z,12.55
2022-10-31T10:40:32.239Z,12.38
2022-10-31T10:43:25.217Z,12.34
2022-10-31T10:46:16.813Z,12.19
2022-10-31T10:48:54.143Z,12.13
2022-10-31T10:52:13.110Z,12.23
2022-10-31T10:55:05.952Z,12.10
2022-10-31T10:57:48.706Z,12.08
2022-10-31T11:00:24.546Z,11.87
2022-10-31T11:02:51.686Z,11.97
2022-10-31T11:05:25.700Z,12.25
2022-10-31T11:07:52.744Z,12.35
2022-10-31T11:10:19.914Z,12.17
2022-10-31T11:13:01.909Z,11.98
2022-10-31T11:15:33.060Z,12.03
2022-10-31T11:18:00.457Z,12.26
2022-10-31T11:20:35.407Z,12.24
2022-10-31T11:23:05.908Z,12.09
2022-10-31T11:25:33.000Z,12.18
2022-10-31T11:28:05.579Z,12.24
2022-10-31T11:30:43.674Z,12.33
2022-10-31T11:33:25.603Z,12.03
2022-10-31T11:35:56.958Z,12.21
2022-10-31T11:38:30.459Z,12.11
2022-10-31T11:41:01.096Z,12.35
2022-10-31T11:43:28.520Z,12.45
2022-10-31T11:45:55.457Z,12.69
2022-10-31T11:48:24.364Z,12.57
2022-10-31T11:50:58.606Z,12.59
2022-10-31T11:53:29.467Z,12.24
2022-10-31T11:56:13.397Z,12.38
2022-10-31T11:58:40.855Z,12.44
2022-10-31T12:01:25.537Z,12.55
2022-10-31T12:04:01.277Z,12.45
2022-10-31T12:06:37.369Z,12.14
2022-10-31T12:09:24.212Z,12.06
2022-10-31T12:12:21.837Z,12.24
2022-10-31T12:15:05.518Z,12.40
2022-10-31T12:18:19.376Z,12.08
2022-10-31T12:21:15.457Z,11.96
2022-10-31T12:24:09.569Z,11.86
2022-10-31T12:27:13.078Z,11.97
2022-10-31T12:30:04.640Z,11.94
2022-10-31T12:32:43.116Z,11.93
2022-10-31T12:35:48.734Z,11.69
2022-10-31T12:38:37.412Z,11.98
2022-10-31T12:41:08.981Z,11.95
2022-10-31T12:43:45.040Z,11.98
2022-10-31T12:46:29.059Z,11.84
2022-10-31T12:49:25.354Z,11.70
2022-10-31T12:51:55.856Z,12.03
2022-10-31T12:54:48.469Z,12.11
2022-10-31T12:57:34.876Z,12.00
2022-10-31T13:00:15.377Z,12.06
2022-10-31T13:02:55.712Z,12.13
2022-10-31T13:05:25.116Z,11.94
2022-10-31T13:08:05.351Z,11.97
2022-10-31T13:10:47.636Z,11.49
2022-10-31T13:13:19.517Z,11.36
2022-10-31T13:15:57.164Z,11.69
2022-10-31T13:18:33.979Z,11.78
2022-10-31T13:21:05.134Z,11.88
2022-10-31T13:23:50.397Z,11.73
2022-10-31T13:26:25.306Z,11.88
2022-10-31T13:29:00.673Z,11.79
2022-10-31T13:31:27.875Z,11.78
2022-10-31T13:33:58.488Z,11.86
2022-10-31T13:36:27.458Z,12.02
2022-10-31T13:39:00.825Z,11.88
2022-10-31T13:41:36.833Z,11.78
2022-10-31T13:44:17.085Z,11.82
2022-10-31T13:46:45.176Z,11.81
2022-10-31T13:49:30.778Z,11.71
2022-10-31T13:52:09.836Z,11.73
2022-10-31T13:54:39.217Z,11.95
2022-10-31T13:57:39.075Z,11.79
2022-10-31T14:00:25.660Z,11.58
2022-10-31T14:02:55.482Z,11.47
2022-10-31T14:05:33.955Z,11.72
2022-10-31T14:08:05.570Z,11.82
2022-10-31T14:10:34.759Z,11.92
2022-10-31T14:13:32.220Z,11.74
2022-10-31T14:16:07.455Z,11.60
2022-10-31T14:18:37.367Z,11.52
2022-10-31T14:21:28.542Z,11.45
2022-10-31T14:23:56.350Z,11.62
2022-10-31T14:26:27.220Z,11.48
2022-10-31T14:29:15.001Z,11.51
2022-10-31T14:31:46.063Z,11.47
2022-10-31T14:34:15.600Z,11.37
2022-10-31T14:36:55.224Z,11.47
2022-10-31T14:40:03.902Z,11.34
2022-10-31T14:42:49.729Z,11.22
2022-10-31T14:45:38.321Z,11.20
2022-10-31T14:48:35.707Z,11.25
2022-10-31T14:51:09.651Z,11.27
2022-10-31T14:53:56.592Z,11.39
2022-10-31T14:56:31.678Z,11.44
2022-10-31T14:59:05.422Z,11.08
2022-10-31T15:01:35.913Z,11.10
2022-10-31T15:04:24.292Z,11.01
2022-10-31T15:07:37.661Z,10.96
2022-10-31T15:10:16.939Z,10.89
2022-10-31T15:12:43.840Z,10.84
2022-10-31T15:15:29.090Z,10.73
2022-10-31T15:18:00.458Z,10.77
2022-10-31T15:20:30.281Z,10.90
2022-10-31T15:22:58.597Z,11.03
2022-10-31T15:25:28.504Z,11.11
2022-10-31T15:27:55.647Z,11.06
2022-10-31T15:30:24.869Z,11.04
2022-10-31T15:32:58.348Z,10.95
2022-10-31T15:35:30.640Z,10.86
2022-10-31T15:37:59.077Z,10.87
2022-10-31T15:40:28.035Z,10.90
2022-10-31T15:43:00.712Z,10.83
2022-10-31T15:45:29.212Z,10.92
2022-10-31T15:48:02.011Z,10.93
2022-10-31T15:50:40.408Z,10.82
2022-10-31T15:53:16.535Z,10.87
2022-10-31T15:56:06.064Z,10.95
2022-10-31T15:58:34.554Z,10.97
2022-10-31T16:01:06.874Z,10.97
2022-10-31T16:03:34.856Z,10.96
2022-10-31T16:06:04.874Z,11.09
2022-10-31T16:08:31.633Z,11.08
2022-10-31T16:11:00.679Z,11.08
2022-10-31T16:13:30.142Z,11.24
2022-10-31T16:16:28.831Z,11.16
2022-10-31T16:18:47.718Z,11.21
2022-10-31T16:21:14.559Z,10.98
2022-10-31T16:23:46.204Z,10.88
2022-10-31T16:26:18.384Z,11.02
2022-10-31T16:29:02.659Z,10.87
2022-10-31T16:31:40.904Z,10.84
2022-10-31T16:34:26.498Z,10.96
2022-10-31T16:36:54.201Z,10.89
2022-10-31T16:39:21.186Z,10.81
2022-10-31T16:41:51.356Z,11.02
2022-10-31T16:44:28.097Z,11.17
2022-10-31T16:47:07.135Z,11.06
2022-10-31T16:49:34.220Z,11.10
2022-10-31T16:52:01.103Z,10.89
2022-10-31T16:54:29.868Z,10.85
2022-10-31T16:56:59.099Z,10.72
2022-10-31T16:59:26.019Z,10.77
2022-10-31T17:01:53.091Z,10.82
2022-10-31T17:04:20.384Z,10.89
2022-10-31T17:06:47.264Z,10.85
2022-10-31T17:09:14.099Z,10.85
2022-10-31T17:11:50.459Z,10.84
2022-10-31T17:14:18.097Z,10.69
2022-10-31T17:16:45.215Z,10.89
2022-10-31T17:19:12.469Z,10.90
2022-10-31T17:21:39.741Z,10.75
2022-10-31T17:24:07.381Z,10.73
2022-10-31T17:26:34.356Z,10.82
2022-10-31T17:29:03.426Z,10.81
2022-10-31T17:31:32.164Z,11.03
2022-10-31T17:34:02.344Z,10.97
2022-10-31T17:36:31.520Z,11.14
2022-10-31T17:38:58.438Z,10.82
2022-10-31T17:41:25.414Z,10.72
2022-10-31T17:43:59.657Z,10.99
2022-10-31T17:46:27.584Z,10.75
2022-10-31T17:48:54.673Z,10.67
2022-10-31T17:51:21.595Z,10.47
2022-10-31T17:53:48.505Z,10.48
2022-10-31T17:56:15.634Z,10.45
2022-10-31T17:58:42.579Z,10.38
2022-10-31T18:01:11.826Z,10.31
2022-10-31T18:03:39.372Z,10.38
2022-10-31T18:06:06.595Z,10.31
2022-10-31T18:08:35.254Z,10.40
2022-10-31T18:11:09.150Z,10.30
2022-10-31T18:13:36.983Z,10.32
2022-10-31T18:16:12.107Z,10.38
2022-10-31T18:18:39.432Z,10.28
2022-10-31T18:21:06.570Z,10.20
2022-10-31T18:23:33.684Z,10.23
2022-10-31T18:26:00.515Z,10.17
2022-10-31T18:28:27.595Z,10.25
2022-10-31T18:30:54.443Z,10.19
2022-10-31T18:33:21.336Z,10.13
2022-10-31T18:35:48.457Z,10.19
2022-10-31T18:38:15.311Z,10.18
2022-10-31T18:40:42.254Z,10.16
2022-10-31T18:43:09.413Z,10.21
2022-10-31T18:45:57.814Z,10.35
2022-10-31T18:48:25.059Z,10.26
2022-10-31T18:50:51.925Z,10.17
2022-10-31T18:53:18.764Z,10.28
2022-10-31T18:55:49.933Z,10.13
2022-10-31T18:58:17.384Z,10.11
2022-10-31T19:00:45.827Z,10.21
2022-10-31T19:03:13.892Z,10.17
2022-10-31T19:05:40.917Z,10.33
2022-10-31T19:08:07.804Z,10.39
2022-10-31T19:10:39.151Z,10.39
2022-10-31T19:13:06.087Z,10.44
2022-10-31T19:15:34.751Z,10.53
2022-10-31T19:18:02.336Z,10.34
2022-10-31T19:20:29.187Z,10.35
2022-10-31T19:22:56.077Z,10.32
2022-10-31T19:25:23.197Z,10.32
2022-10-31T19:27:50.059Z,10.31
2022-10-31T19:30:16.955Z,10.25
2022-10-31T19:32:44.048Z,10.30
2022-10-31T19:35:11.440Z,10.28
2022-10-31T19:37:39.921Z,10.28
2022-10-31T19:40:08.892Z,10.39
2022-10-31T19:42:35.868Z,10.53
2022-10-31T19:45:03.686Z,10.48
2022-10-31T19:47:33.629Z,10.39
2022-10-31T19:50:05.048Z,10.41
2022-10-31T19:52:35.831Z,10.25
2022-10-31T19:55:02.882Z,10.20
2022-10-31T19:57:56.183Z,10.20
2022-10-31T20:00:16.812Z,10.35
2022-10-31T20:02:43.915Z,10.29
2022-10-31T20:05:10.776Z,10.21
2022-10-31T20:07:37.604Z,10.35
2022-10-31T20:10:05.068Z,10.28
2022-10-31T20:12:33.120Z,10.30
2022-10-31T20:14:59.993Z,10.30
2022-10-31T20:17:30.083Z,10.25
2022-10-31T20:19:57.012Z,10.25
2022-10-31T20:22:23.890Z,10.25
2022-10-31T20:24:50.980Z,10.27
2022-10-31T20:27:17.847Z,10.27
2022-10-31T20:29:44.682Z,10.27
2022-10-31T20:32:11.759Z,10.29
2022-10-31T20:34:39.224Z,10.27
2022-10-31T20:37:06.135Z,10.20
2022-10-31T20:39:33.253Z,10.10
2022-10-31T20:42:00.136Z,10.12
2022-10-31T20:44:27.112Z,10.12
2022-10-31T20:46:54.239Z,10.12
2022-10-31T20:49:23.756Z,10.17
2022-10-31T20:51:50.604Z,10.13
2022-10-31T20:54:19.116Z,10.17
2022-10-31T20:56:45.959Z,10.19
2022-10-31T20:59:15.085Z,10.15
2022-10-31T21:01:42.319Z,10.13
2022-10-31T21:04:11.914Z,10.11
2022-10-31T21:06:39.205Z,10.14
2022-10-31T21:09:07.063Z,10.18
2022-10-31T21:11:33.887Z,10.29
2022-10-31T21:14:00.789Z,10.39
2022-10-31T21:16:31.154Z,10.33
2022-10-31T21:19:01.082Z,10.15
2022-10-31T21:21:32.437Z,10.09
2022-10-31T21:24:02.188Z,10.14
2022-10-31T21:26:33.355Z,10.06
2022-10-31T21:29:00.809Z,9.98
2022-10-31T21:31:28.380Z,10.08
2022-10-31T21:33:56.180Z,10.06
2022-10-31T21:36:23.258Z,10.14
2022-10-31T21:38:53.982Z,10.15
2022-10-31T21:41:21.786Z,10.25
2022-10-31T21:43:50.196Z,10.12
2022-10-31T21:46:19.567Z,10.03
2022-10-31T21:48:47.245Z,10.13
2022-10-31T21:51:17.327Z,10.01
2022-10-31T21:54:02.968Z,10.05
2022-10-31T21:56:30.103Z,10.11
2022-10-31T21:58:57.233Z,10.18
2022-10-31T22:01:25.600Z,10.16
2022-10-31T22:03:53.166Z,10.14
2022-10-31T22:06:20.508Z,10.09
2022-10-31T22:08:47.928Z,10.12
2022-10-31T22:11:16.735Z,10.19
2022-10-31T22:13:45.884Z,10.08
2022-10-31T22:16:18.808Z,10.16
2022-10-31T22:18:46.190Z,10.29
2022-10-31T22:21:14.952Z,10.20
2022-10-31T22:23:42.370Z,10.06
2022-10-31T22:26:14.438Z,10.20
2022-10-31T22:28:42.575Z,10.17
2022-10-31T22:33:44.694Z,10.14
2022-10-31T22:36:17.363Z,10.18
2022-10-31T22:38:44.825Z,10.02
2022-10-31T22:41:17.470Z,10.10
2022-10-31T22:43:44.668Z,10.23
2022-10-31T22:46:13.712Z,10.23
2022-10-31T22:48:46.042Z,10.20
2022-10-31T22:51:15.901Z,10.13
2022-10-31T22:53:42.810Z,10.21
2022-10-31T22:56:11.719Z,10.25
2022-10-31T22:58:38.949Z,10.22
2022-10-31T23:01:07.912Z,10.09
2022-10-31T23:03:35.666Z,10.15
2022-10-31T23:06:04.381Z,10.02
2022-10-31T23:08:31.864Z,10.06
2022-10-31T23:10:58.719Z,10.09
2022-10-31T23:13:44.390Z,10.18
2022-10-31T23:16:12.689Z,10.10
2022-10-31T23:18:55.250Z,10.00
2022-10-31T23:21:42.992Z,10.17
2022-10-31T23:24:13.479Z,10.27
2022-10-31T23:26:59.127Z,9.96
2022-10-31T23:29:26.244Z,10.12
2022-10-31T23:31:55.681Z,10.16
2022-10-31T23:34:22.744Z,10.14
2022-10-31T23:36:49.871Z,9.94
2022-10-31T23:39:19.925Z,9.91
2022-10-31T23:41:49.907Z,9.98
2022-10-31T23:44:16.756Z,10.06
2022-10-31T23:46:43.759Z,10.02
2022-10-31T23:49:10.915Z,9.94
2022-10-31T23:51:39.268Z,10.04
2022-10-31T23:54:06.391Z,9.93
2022-10-31T23:56:33.836Z,10.01
2022-10-31T23:59:00.683Z,10.06
